Time;durP1;ratioP1;P1;durP2;ratioP2;P2;SDS_P1;SDS_P2;PMS_P1;PMS_P2;Temp;Humidity;BMP_temperature;BMP_pressure;BME280_temperature;BME280_humidity;BME280_pressure;Samples;Min_cycle;Max_cycle;Signal;HPM_P1;HPM_P2
2022/11/28 00:01:45;;;;;;;9.40;1.92;;;;;;;12.56;48.19;98688.41;5090681;28;20531;-48
2022/11/28 00:04:12;;;;;;;5.35;2.05;;;;;;;12.63;47.57;98694.44;5090675;28;20028;-48
2022/11/28 00:06:44;;;;;;;3.45;1.10;;;;;;;12.72;47.91;98714.22;5092204;28;20059;-48
2022/11/28 00:09:10;;;;;;;4.50;1.60;;;;;;;12.71;48.43;98702.06;5091969;28;20023;-48
2022/11/28 00:11:39;;;;;;;4.85;2.10;;;;;;;12.70;48.47;98697.84;5090571;28;20035;-48
2022/11/28 00:14:05;;;;;;;3.13;1.27;;;;;;;12.82;48.22;98703.22;5091936;28;20024;-47
2022/11/28 00:16:31;;;;;;;5.35;2.33;;;;;;;12.85;47.96;98712.50;5091815;28;20385;-48
2022/11/28 00:18:58;;;;;;;6.13;3.65;;;;;;;12.81;47.63;98690.25;5090533;28;20038;-48
2022/11/28 00:21:24;;;;;;;8.10;2.20;;;;;;;12.81;47.50;98685.00;5091808;28;20028;-48
2022/11/28 00:23:49;;;;;;;8.50;2.10;;;;;;;12.74;47.64;98687.69;5090458;28;20111;-48
2022/11/28 00:26:17;;;;;;;4.05;2.33;;;;;;;12.64;47.83;98685.53;5091790;28;20504;-48
2022/11/28 00:28:42;;;;;;;3.10;1.58;;;;;;;12.65;47.77;98678.44;5090463;28;20506;-48
2022/11/28 00:31:20;;;;;;;4.18;1.40;;;;;;;12.66;47.68;98674.78;5090164;28;20047;-49
2022/11/28 00:33:46;;;;;;;4.30;2.15;;;;;;;12.68;48.19;98684.06;5090377;28;20133;-48
2022/11/28 00:36:12;;;;;;;3.08;1.40;;;;;;;12.73;47.82;98681.59;5091719;28;20050;-48
2022/11/28 00:38:39;;;;;;;8.20;1.40;;;;;;;12.72;47.74;98681.81;5090308;28;20032;-48
2022/11/28 00:41:08;;;;;;;3.65;1.23;;;;;;;12.79;47.31;98675.47;5091675;28;20506;-48
2022/11/28 00:43:35;;;;;;;4.47;1.73;;;;;;;12.86;47.58;98670.16;5091672;28;20024;-48
2022/11/28 00:46:01;;;;;;;4.25;1.70;;;;;;;12.90;48.09;98666.06;5090387;28;20108;-48
2022/11/28 00:48:27;;;;;;;5.75;1.00;;;;;;;13.05;46.50;98668.38;5090321;28;20032;-48
2022/11/28 00:50:55;;;;;;;2.45;0.93;;;;;;;13.12;45.87;98652.50;5090286;28;20031;-48
2022/11/28 00:53:20;;;;;;;4.47;1.30;;;;;;;13.17;45.41;98652.66;5090154;28;20027;-48
2022/11/28 00:55:46;;;;;;;3.28;1.20;;;;;;;13.17;45.21;98642.13;5090364;28;20024;-48
2022/11/28 00:58:12;;;;;;;3.08;2.30;;;;;;;13.09;45.09;98639.75;5090234;28;20068;-48
2022/11/28 01:00:38;;;;;;;4.28;2.35;;;;;;;13.06;45.09;98651.56;5091462;28;20717;-48
2022/11/28 01:03:04;;;;;;;9.48;6.30;;;;;;;13.04;45.24;98643.06;5090324;28;20021;-48
2022/11/28 01:05:29;;;;;;;5.13;2.92;;;;;;;13.14;45.16;98643.38;5091403;28;20024;-48
2022/11/28 01:07:55;;;;;;;6.28;1.98;;;;;;;13.16;45.10;98637.88;5091412;28;20020;-48
2022/11/28 01:10:20;;;;;;;2.63;1.35;;;;;;;13.16;44.77;98636.06;5090056;28;20028;-48
2022/11/28 01:12:46;;;;;;;2.00;1.00;;;;;;;13.17;44.65;98632.38;5090021;28;20401;-48
2022/11/28 01:15:12;;;;;;;3.28;1.30;;;;;;;13.13;44.40;98635.66;5089937;28;20032;-47
2022/11/28 01:17:38;;;;;;;4.32;1.30;;;;;;;13.14;43.79;98629.41;5091267;28;20107;-48
2022/11/28 01:20:07;;;;;;;3.15;1.40;;;;;;;13.12;43.73;98626.97;5089965;28;20056;-48
2022/11/28 01:22:33;;;;;;;4.38;1.35;;;;;;;13.07;44.17;98636.53;5089969;28;20025;-48
2022/11/28 01:25:02;;;;;;;2.78;1.00;;;;;;;13.03;43.93;98630.91;5089953;28;20401;-48
2022/11/28 01:27:31;;;;;;;5.55;1.33;;;;;;;13.02;43.82;98628.47;5092975;28;20024;-48
2022/11/28 01:29:56;;;;;;;3.03;1.40;;;;;;;13.10;44.16;98638.72;5094861;28;20482;-48
2022/11/28 01:32:22;;;;;;;5.85;1.40;;;;;;;13.12;43.68;98626.13;5094571;28;20055;-48
2022/11/28 01:34:48;;;;;;;4.95;1.60;;;;;;;13.03;44.09;98640.63;5093351;28;20043;-48
2022/11/28 01:37:13;;;;;;;7.50;1.60;;;;;;;12.95;44.60;98634.59;5094667;28;20024;-48
2022/11/28 01:39:39;;;;;;;2.50;1.30;;;;;;;12.99;44.59;98629.72;5093348;28;20532;-48
2022/11/28 01:42:05;;;;;;;1.92;1.25;;;;;;;12.95;44.13;98625.91;5093280;28;20470;-48
2022/11/28 01:44:30;;;;;;;3.42;1.35;;;;;;;12.89;44.43;98632.84;5093207;28;20047;-48
2022/11/28 01:46:56;;;;;;;4.47;1.25;;;;;;;12.85;44.70;98628.22;5093139;28;20444;-48
2022/11/28 01:49:34;;;;;;;2.60;1.58;;;;;;;12.90;45.58;98623.94;5094489;28;20020;-48
2022/11/28 01:52:06;;;;;;;4.07;1.42;;;;;;;12.99;44.77;98619.97;5093134;28;20465;-48
2022/11/28 01:54:34;;;;;;;2.67;1.40;;;;;;;12.94;44.56;98625.13;5093019;28;20094;-48
2022/11/28 01:57:07;;;;;;;2.58;1.30;;;;;;;12.87;45.04;98616.44;5094294;28;20099;-48
2022/11/28 01:59:38;;;;;;;2.20;1.00;;;;;;;12.85;44.84;98615.06;5094220;28;20078;-48
2022/11/28 02:02:08;;;;;;;5.22;1.35;;;;;;;12.77;45.02;98618.78;5092942;28;20036;-48
2022/11/28 02:04:34;;;;;;;2.40;1.05;;;;;;;12.81;44.88;98624.41;5094222;28;20104;-48
2022/11/28 02:07:00;;;;;;;6.38;1.25;;;;;;;12.81;44.55;98616.53;5094322;28;20480;-48
2022/11/28 02:09:25;;;;;;;8.38;2.30;;;;;;;12.71;44.69;98612.53;5094056;28;20103;-48
2022/11/28 02:12:15;;;;;;;3.10;1.15;;;;;;;12.62;44.52;98603.31;5094007;28;20021;-48
2022/11/28 02:15:02;;;;;;;2.55;1.30;;;;;;;12.52;45.05;98598.53;5092835;28;20028;-48
2022/11/28 02:17:37;;;;;;;2.85;1.52;;;;;;;12.41;45.63;98593.94;5093950;28;20055;-48
2022/11/28 02:20:21;;;;;;;3.42;1.25;;;;;;;12.28;45.49;98588.81;5092583;28;20402;-48
2022/11/28 02:23:02;;;;;;;5.75;1.60;;;;;;;12.26;45.99;98594.28;5092522;28;20031;-48
2022/11/28 02:25:55;;;;;;;3.00;1.17;;;;;;;12.29;45.81;98595.66;5092450;28;20111;-48
2022/11/28 02:29:02;;;;;;;7.63;1.83;;;;;;;12.41;46.01;98601.03;5093773;28;20020;-48
2022/11/28 02:31:46;;;;;;;;;;;;;;;12.61;46.71;98609.59;5092542;28;20052;-47
2022/11/28 02:34:20;;;;;;;3.95;1.73;;;;;;;12.78;45.93;98596.69;5093527;28;19977;-48
2022/11/28 02:37:14;;;;;;;4.13;1.58;;;;;;;12.86;45.99;98583.25;5092012;28;20024;-48
2022/11/28 02:40:08;;;;;;;3.20;1.42;;;;;;;13.03;44.79;98575.56;5067481;28;20042;-47
2022/11/28 02:42:43;;;;;;;3.13;1.75;;;;;;;12.74;44.91;98585.78;5092208;28;20545;-48
2022/11/28 02:45:28;;;;;;;2.97;1.90;;;;;;;12.53;45.25;98580.91;5093427;28;20042;-47
2022/11/28 02:48:02;;;;;;;6.25;2.00;;;;;;;12.46;45.70;98575.69;5093378;28;20039;-48
2022/11/28 02:50:37;;;;;;;4.88;1.70;;;;;;;12.70;45.75;98573.28;5093284;28;20043;-48
2022/11/28 02:53:07;;;;;;;3.22;1.73;;;;;;;12.74;45.29;98567.34;5092159;28;20039;-48
2022/11/28 02:55:37;;;;;;;6.10;1.60;;;;;;;12.65;45.36;98570.47;5091973;28;20028;-48
2022/11/28 02:58:03;;;;;;;7.60;2.15;;;;;;;12.72;45.43;98555.44;5093410;28;20020;-48
2022/11/28 03:00:36;;;;;;;3.47;1.60;;;;;;;12.71;44.60;98564.34;5091782;28;20406;-47
2022/11/28 03:03:07;;;;;;;9.77;2.00;;;;;;;12.53;45.33;98555.38;5093029;28;20021;-48
2022/11/28 03:05:44;;;;;;;7.10;1.88;;;;;;;12.41;45.27;98554.47;5092967;28;20032;-48
2022/11/28 03:08:29;;;;;;;6.32;2.00;;;;;;;12.24;45.85;98556.03;5091697;28;20097;-48
2022/11/28 03:11:00;;;;;;;2.83;1.80;;;;;;;12.19;45.99;98548.78;5091646;28;20019;-48
2022/11/28 03:13:36;;;;;;;4.75;2.40;;;;;;;12.16;46.78;98542.13;5092796;28;20030;-48
2022/11/28 03:16:26;;;;;;;5.03;2.53;;;;;;;12.45;46.95;98539.06;5091536;28;20178;-48
2022/11/28 03:19:08;;;;;;;6.75;2.50;;;;;;;12.49;47.14;98527.88;5083248;28;20040;-48
2022/11/28 03:21:56;;;;;;;11.95;3.45;;;;;;;12.53;48.32;98538.78;5091405;28;20028;-48
2022/11/28 03:24:44;;;;;;;12.60;3.13;;;;;;;12.61;48.16;98532.44;5092711;28;20085;-48
2022/11/28 03:27:24;;;;;;;6.25;3.13;;;;;;;12.28;48.12;98523.81;5092562;28;20020;-48
2022/11/28 03:29:56;;;;;;;4.40;2.47;;;;;;;12.05;48.47;98524.38;5092606;28;20035;-48
2022/11/28 03:32:30;;;;;;;9.15;2.53;;;;;;;11.98;49.04;98513.13;5091003;28;20088;-48
2022/11/28 03:35:02;;;;;;;4.80;2.33;;;;;;;12.08;48.48;98502.94;5091116;28;20536;-48
2022/11/28 03:37:39;;;;;;;4.47;2.45;;;;;;;11.94;47.92;98502.22;5092412;28;20452;-48
2022/11/28 03:40:12;;;;;;;5.30;2.50;;;;;;;11.73;48.45;98494.63;5091091;28;20038;-48
2022/11/28 03:42:44;;;;;;;13.45;3.42;;;;;;;11.61;49.55;98494.53;5092390;28;20122;-48
2022/11/28 03:45:14;;;;;;;9.50;3.45;;;;;;;11.80;49.32;98500.66;5092383;28;20039;-48
2022/11/28 03:47:44;;;;;;;8.48;2.90;;;;;;;11.88;48.77;98500.41;5092218;28;20055;-48
2022/11/28 03:50:16;;;;;;;6.47;2.72;;;;;;;12.07;49.22;98501.31;5091876;28;20024;-48
2022/11/28 03:52:58;;;;;;;9.95;3.60;;;;;;;12.22;49.35;98503.63;5092248;28;20055;-48
2022/11/28 03:56:08;;;;;;;13.02;3.00;;;;;;;12.45;49.10;98495.13;5092140;28;20510;-48
2022/11/28 03:59:15;;;;;;;12.20;3.70;;;;;;;12.76;48.75;98501.31;5089006;28;20041;-48
2022/11/28 04:02:01;;;;;;;6.38;4.43;;;;;;;12.92;48.33;98492.81;5013041;28;20075;-48
2022/11/28 04:04:45;;;;;;;10.60;3.40;;;;;;;12.67;47.90;98495.50;5029702;28;20083;-48
2022/11/28 04:07:33;;;;;;;9.23;3.60;;;;;;;12.64;48.47;98484.63;5013087;28;20025;-48
2022/11/28 04:10:03;;;;;;;8.52;3.75;;;;;;;12.79;49.29;98496.38;5024151;28;20042;-48
2022/11/28 04:12:40;;;;;;;13.57;4.60;;;;;;;12.98;48.58;98499.84;5012980;28;20024;-48
2022/11/28 04:15:13;;;;;;;10.05;5.20;;;;;;;12.79;48.97;98501.66;5012873;28;20033;-47
2022/11/28 04:18:19;;;;;;;9.40;4.82;;;;;;;12.27;49.68;98510.88;5029600;28;20143;-48
2022/11/28 04:20:52;;;;;;;7.75;4.78;;;;;;;11.92;50.78;98503.47;5023990;28;20408;-48
2022/11/28 04:23:20;;;;;;;12.27;5.57;;;;;;;11.77;51.25;98506.34;5012937;28;20041;-48
2022/11/28 04:26:01;;;;;;;15.55;5.07;;;;;;;11.61;51.91;98507.69;5012862;28;20427;-48
2022/11/28 04:28:30;;;;;;;10.35;5.20;;;;;;;11.66;52.04;98513.09;4996511;28;20045;-48
2022/11/28 04:31:00;;;;;;;15.65;5.25;;;;;;;11.63;51.66;98510.91;5029216;28;20037;-48
2022/11/28 04:33:31;;;;;;;14.43;4.95;;;;;;;11.51;52.21;98512.56;5012831;28;20034;-48
2022/11/28 04:35:58;;;;;;;16.80;5.47;;;;;;;11.35;52.52;98513.88;5062988;28;20036;-48
2022/11/28 04:38:27;;;;;;;12.32;4.63;;;;;;;11.17;53.15;98510.09;5090378;28;20059;-48
2022/11/28 04:41:00;;;;;;;11.07;5.60;;;;;;;11.08;53.50;98519.22;5090352;28;20024;-48
2022/11/28 04:43:31;;;;;;;13.65;5.50;;;;;;;11.02;54.33;98516.63;5074248;28;20032;-48
2022/11/28 04:46:23;;;;;;;15.48;5.18;;;;;;;11.02;54.31;98519.25;5091642;28;20039;-48
2022/11/28 04:48:49;;;;;;;10.20;5.55;;;;;;;11.04;54.49;98525.09;5090497;28;20070;-48
2022/11/28 04:51:24;;;;;;;13.38;5.60;;;;;;;10.96;54.11;98526.13;5090244;28;20035;-48
2022/11/28 04:54:04;;;;;;;11.13;5.90;;;;;;;10.81;54.25;98528.19;5090347;28;20020;-48
2022/11/28 04:56:38;;;;;;;8.15;5.28;;;;;;;10.76;54.78;98529.59;5090559;28;20060;-47
2022/11/28 04:59:06;;;;;;;9.40;6.10;;;;;;;10.77;55.13;98528.59;5091596;28;20027;-48
2022/11/28 05:01:33;;;;;;;11.88;5.63;;;;;;;10.79;55.21;98542.31;5093180;28;20486;-48
2022/11/28 05:03:59;;;;;;;15.98;6.40;;;;;;;10.78;55.25;98535.47;5094022;28;20524;-48
2022/11/28 05:06:34;;;;;;;13.40;5.80;;;;;;;10.72;55.36;98538.09;5093997;28;20024;-48
2022/11/28 05:09:00;;;;;;;11.70;5.65;;;;;;;10.49;55.46;98528.84;5095233;28;20024;-48
2022/11/28 05:11:26;;;;;;;10.73;5.78;;;;;;;10.37;56.07;98530.47;5093824;28;20031;-48
2022/11/28 05:13:53;;;;;;;12.10;5.25;;;;;;;10.33;56.12;98532.69;5095089;28;20482;-48
2022/11/28 05:16:19;;;;;;;9.13;5.15;;;;;;;10.45;56.53;98534.72;5093712;28;20032;-48
2022/11/28 05:18:45;;;;;;;11.77;5.25;;;;;;;10.53;56.31;98524.00;5093777;28;20389;-48
2022/11/28 05:21:12;;;;;;;16.38;6.63;;;;;;;10.67;57.01;98522.97;5093725;28;20028;-48
2022/11/28 05:23:40;;;;;;;13.65;5.90;;;;;;;10.90;56.34;98529.56;5093674;28;20035;-48
2022/11/28 05:26:08;;;;;;;13.38;5.88;;;;;;;10.94;56.22;98528.16;5095149;28;20416;-48
2022/11/28 05:28:34;;;;;;;11.63;6.47;;;;;;;11.00;55.90;98537.81;5093562;28;20024;-48
2022/11/28 05:31:01;;;;;;;14.98;5.55;;;;;;;10.98;55.75;98532.78;5093318;28;20564;-48
2022/11/28 05:33:29;;;;;;;8.10;5.00;;;;;;;10.98;55.97;98524.91;5094789;28;20051;-48
2022/11/28 05:35:56;;;;;;;9.95;4.70;;;;;;;10.91;55.24;98524.13;5093465;28;20050;-48
2022/11/28 05:38:22;;;;;;;15.07;4.75;;;;;;;10.89;55.45;98531.41;5094715;28;20073;-48
2022/11/28 05:40:47;;;;;;;13.90;5.00;;;;;;;10.95;55.63;98520.06;5094710;28;20024;-48
2022/11/28 05:43:13;;;;;;;14.00;5.13;;;;;;;10.97;56.06;98531.19;5094680;28;20103;-48
2022/11/28 05:45:43;;;;;;;10.93;4.97;;;;;;;10.99;56.00;98521.28;5093238;28;20032;-48
2022/11/28 05:48:08;;;;;;;13.00;5.55;;;;;;;11.15;55.66;98517.38;5094404;28;20028;-48
2022/11/28 05:50:34;;;;;;;13.23;4.88;;;;;;;11.18;55.65;98511.69;5094421;28;20043;-48
2022/11/28 05:53:00;;;;;;;10.77;4.43;;;;;;;11.05;55.28;98511.75;5094461;28;20012;-48
2022/11/28 05:55:25;;;;;;;8.15;4.35;;;;;;;10.92;55.28;98507.34;5092941;28;20031;-48
2022/11/28 05:57:52;;;;;;;9.73;3.58;;;;;;;10.68;55.45;98503.56;5094291;28;20020;-48
2022/11/28 06:00:19;;;;;;;7.75;4.45;;;;;;;10.47;55.87;98506.44;5094215;28;20067;-48
2022/11/28 06:02:44;;;;;;;9.45;3.78;;;;;;;10.43;56.19;98503.44;5094217;28;20051;-48
2022/11/28 06:05:10;;;;;;;20.50;4.50;;;;;;;10.56;56.35;98507.84;5094162;28;20071;-48
2022/11/28 06:07:35;;;;;;;7.13;3.42;;;;;;;10.68;55.44;98502.78;5094153;28;20024;-48
2022/11/28 06:10:01;;;;;;;7.97;3.97;;;;;;;10.71;55.78;98499.75;5092718;28;20101;-48
2022/11/28 06:12:27;;;;;;;7.22;3.20;;;;;;;10.60;55.28;98503.78;5092470;28;20024;-48
2022/11/28 06:14:53;;;;;;;17.15;3.75;;;;;;;10.47;55.50;98499.38;5092654;28;20501;-48
2022/11/28 06:17:18;;;;;;;14.00;3.83;;;;;;;10.60;56.32;98501.16;5092578;28;20020;-48
2022/11/28 06:19:44;;;;;;;4.43;2.83;;;;;;;10.73;55.58;98493.28;5093903;28;20028;-48
2022/11/28 06:22:10;;;;;;;9.50;2.92;;;;;;;10.66;55.33;98491.66;5093826;28;20028;-48
2022/11/28 06:24:35;;;;;;;19.50;4.75;;;;;;;10.61;55.35;98492.28;5092559;28;20463;-48
2022/11/28 06:27:01;;;;;;;10.27;3.90;;;;;;;10.61;55.51;98491.50;5093794;28;20027;-48
2022/11/28 06:29:26;;;;;;;11.48;3.58;;;;;;;10.73;55.70;98493.28;5093731;28;20039;-48
2022/11/28 06:31:52;;;;;;;11.07;3.83;;;;;;;11.02;54.64;98495.63;5092099;28;20070;-48
2022/11/28 06:34:18;;;;;;;9.18;3.63;;;;;;;10.95;54.46;98480.69;5093598;28;20062;-48
2022/11/28 06:36:44;;;;;;;7.85;4.15;;;;;;;10.77;55.06;98481.34;5093546;28;20028;-48
2022/11/28 06:39:15;;;;;;;9.43;3.15;;;;;;;10.85;54.96;98480.31;5093515;28;20027;-48
2022/11/28 06:41:41;;;;;;;16.92;3.92;;;;;;;11.03;55.11;98479.66;5093741;28;20036;-48
2022/11/28 06:44:13;;;;;;;6.95;3.15;;;;;;;11.24;54.59;98473.28;5093723;28;20511;-48
2022/11/28 06:46:39;;;;;;;15.90;5.45;;;;;;;11.41;55.08;98471.00;5093379;28;20085;-48
2022/11/28 06:49:04;;;;;;;8.48;3.55;;;;;;;11.65;54.26;98476.50;5093418;28;20099;-48
2022/11/28 06:51:30;;;;;;;11.48;3.78;;;;;;;11.86;54.70;98478.78;5093242;28;20111;-48
2022/11/28 06:53:56;;;;;;;10.27;3.60;;;;;;;12.22;53.98;98473.88;5091812;28;20107;-48
2022/11/28 06:56:21;;;;;;;15.63;3.35;;;;;;;12.39;53.22;98473.13;5093163;28;20032;-48
2022/11/28 06:58:54;;;;;;;14.52;3.75;;;;;;;12.44;52.82;98469.03;5074958;28;20016;-48
2022/11/28 07:01:22;;;;;;;14.35;3.92;;;;;;;12.42;52.26;98474.50;5093631;28;20036;-48
2022/11/28 07:03:48;;;;;;;8.27;3.50;;;;;;;12.22;52.09;98469.44;5091755;28;20027;-48
2022/11/28 07:06:16;;;;;;;10.32;3.65;;;;;;;11.79;52.07;98467.50;5092910;28;20024;-47
2022/11/28 07:08:42;;;;;;;7.13;3.50;;;;;;;11.48;53.31;98473.56;5075093;28;20050;-47
2022/11/28 07:11:11;;;;;;;7.72;3.10;;;;;;;11.48;54.11;98487.50;5092929;28;20032;-48
2022/11/28 07:13:38;;;;;;;13.52;4.20;;;;;;;11.92;53.84;98488.47;5091746;28;20020;-48
2022/11/28 07:16:04;;;;;;;19.75;4.55;;;;;;;12.43;52.81;98477.94;5092725;28;20107;-48
2022/11/28 07:18:30;;;;;;;13.15;3.80;;;;;;;12.95;51.55;98483.66;5091408;28;20052;-48
2022/11/28 07:20:55;;;;;;;14.18;3.78;;;;;;;13.23;50.41;98482.31;5091533;28;20072;-48
2022/11/28 07:23:21;;;;;;;7.55;3.60;;;;;;;13.36;49.02;98485.63;5092147;28;20020;-48
2022/11/28 07:25:47;;;;;;;13.32;3.70;;;;;;;13.03;48.02;98487.84;5092537;28;20020;-48
2022/11/28 07:28:12;;;;;;;6.82;3.75;;;;;;;12.41;48.03;98501.84;5092616;28;20386;-48
2022/11/28 07:30:38;;;;;;;6.10;3.22;;;;;;;11.86;49.39;98496.38;5092372;28;20031;-52
2022/11/28 07:33:03;;;;;;;7.95;3.78;;;;;;;11.69;50.36;98498.72;5092501;28;20567;-48
2022/11/28 07:35:32;;;;;;;7.05;3.67;;;;;;;11.74;50.45;98499.69;5091013;28;20031;-48
2022/11/28 07:37:57;;;;;;;4.63;3.28;;;;;;;11.59;50.92;98493.94;5092420;28;20024;-48
2022/11/28 07:40:23;;;;;;;10.32;4.28;;;;;;;11.35;51.43;98503.38;5092313;28;20027;-48
2022/11/28 07:42:49;;;;;;;8.10;4.95;;;;;;;11.15;52.44;98506.06;5092316;28;20032;-48
2022/11/28 07:45:14;;;;;;;13.70;4.82;;;;;;;11.07;52.96;98508.94;5090983;28;20510;-48
2022/11/28 07:47:40;;;;;;;11.48;5.50;;;;;;;10.99;53.51;98507.34;5090953;28;20027;-48
2022/11/28 07:50:06;;;;;;;8.43;4.43;;;;;;;11.02;53.88;98512.16;5092222;28;20028;-48
2022/11/28 07:52:32;;;;;;;6.72;3.97;;;;;;;11.05;53.45;98509.13;5090891;28;20085;-48
2022/11/28 07:54:57;;;;;;;10.05;5.00;;;;;;;11.18;53.96;98514.31;5090845;28;20649;-48
2022/11/28 07:57:23;;;;;;;9.13;4.60;;;;;;;11.47;53.85;98514.81;5092105;28;20024;-48
2022/11/28 07:59:49;;;;;;;13.50;5.05;;;;;;;11.92;53.67;98503.47;5090739;28;20024;-48
2022/11/28 08:02:14;;;;;;;16.88;4.72;;;;;;;12.33;53.46;98510.00;5091019;28;20031;-48
2022/11/28 08:04:40;;;;;;;17.40;5.95;;;;;;;12.42;52.67;98506.09;5092042;28;20024;-48
2022/11/28 08:07:06;;;;;;;19.35;6.82;;;;;;;12.34;53.15;98501.91;5090634;28;20371;-47
2022/11/28 08:09:31;;;;;;;17.20;6.40;;;;;;;12.26;53.72;98494.28;5091967;28;20028;-48
2022/11/28 08:11:57;;;;;;;20.70;7.05;;;;;;;12.13;54.17;98512.78;5091948;28;20023;-48
2022/11/28 08:14:23;;;;;;;13.30;6.45;;;;;;;11.95;54.65;98509.09;5090533;28;20025;-48
2022/11/28 08:16:49;;;;;;;12.73;6.13;;;;;;;11.75;54.86;98505.75;5091960;28;20012;-48
2022/11/28 08:19:15;;;;;;;16.17;6.43;;;;;;;11.52;55.67;98508.94;5091871;28;20036;-48
2022/11/28 08:21:41;;;;;;;15.35;5.90;;;;;;;11.36;56.50;98512.84;5090552;28;20085;-48
2022/11/28 08:24:07;;;;;;;8.65;6.10;;;;;;;11.26;56.93;98515.91;5090541;28;20024;-48
2022/11/28 08:26:34;;;;;;;19.50;6.40;;;;;;;11.37;57.80;98519.72;5091739;28;20035;-48
2022/11/28 08:29:01;;;;;;;7.63;4.90;;;;;;;11.49;56.93;98518.03;5091740;28;20024;-48
2022/11/28 08:31:35;;;;;;;17.98;6.93;;;;;;;11.59;56.85;98510.50;5091396;28;20626;-48
2022/11/28 08:34:05;;;;;;;13.07;6.18;;;;;;;11.49;56.88;98519.84;5090388;28;20089;-48
2022/11/28 08:36:31;;;;;;;16.48;6.38;;;;;;;11.43;56.88;98523.31;5093934;28;20494;-48
2022/11/28 08:38:59;;;;;;;13.85;6.75;;;;;;;11.41;57.21;98523.53;5095874;28;20402;-48
2022/11/28 08:41:25;;;;;;;14.15;6.50;;;;;;;11.44;56.37;98514.44;5096039;28;20016;-48
2022/11/28 08:43:51;;;;;;;12.02;6.13;;;;;;;11.52;56.59;98516.81;5094480;28;20485;-48
2022/11/28 08:46:20;;;;;;;13.13;6.53;;;;;;;11.62;56.83;98505.84;5095912;28;20024;-48
2022/11/28 08:48:47;;;;;;;24.85;6.80;;;;;;;11.79;56.00;98505.13;5094433;28;20024;-48
2022/11/28 08:51:16;;;;;;;19.42;6.30;;;;;;;12.00;55.45;98497.94;5094250;28;20031;-48
2022/11/28 08:53:43;;;;;;;13.98;6.22;;;;;;;12.06;55.17;98507.59;5095475;28;20017;-48
2022/11/28 08:56:10;;;;;;;14.98;5.63;;;;;;;12.18;54.38;98503.25;5094193;28;20525;-48
2022/11/28 08:58:36;;;;;;;47.10;11.18;;;;;;;12.27;54.81;98501.13;5095501;28;20099;-48
2022/11/28 09:01:02;;;;;;;28.67;7.38;;;;;;;12.34;54.49;98496.63;5095600;28;20107;-48
2022/11/28 09:03:28;;;;;;;58.88;12.07;;;;;;;12.51;55.00;98499.50;5094060;28;20037;-48
2022/11/28 09:06:00;;;;;;;116.68;21.17;;;;;;;12.77;54.59;98505.53;5093952;28;20027;-48
2022/11/28 09:08:26;;;;;;;160.18;30.10;;;;;;;12.82;54.43;98503.06;5094028;28;20406;-48
2022/11/28 09:10:52;;;;;;;80.43;17.75;;;;;;;12.82;54.89;98500.44;5093890;28;20024;-48
2022/11/28 09:13:18;;;;;;;166.30;32.58;;;;;;;12.77;55.30;98508.16;5095172;28;20398;-48
2022/11/28 09:15:45;;;;;;;54.47;13.38;;;;;;;12.58;56.27;98508.16;5095371;28;20031;-48
2022/11/28 09:18:13;;;;;;;42.63;10.63;;;;;;;12.30;57.24;98518.34;5095346;28;20016;-48
2022/11/28 09:20:39;;;;;;;29.55;8.77;;;;;;;12.08;59.83;98516.06;5093728;28;20405;-48
2022/11/28 09:23:06;;;;;;;45.72;11.15;;;;;;;11.95;62.61;98519.63;5094977;28;20102;-48
2022/11/28 09:25:36;;;;;;;27.65;10.32;;;;;;;11.75;65.62;98521.53;5093609;28;20028;-48
2022/11/28 09:28:02;;;;;;;16.30;8.00;;;;;;;11.57;66.44;98527.50;5094905;28;20019;-48
2022/11/28 09:30:28;;;;;;;32.72;10.07;;;;;;;11.36;70.39;98528.59;5094877;28;20402;-47
2022/11/28 09:32:54;;;;;;;23.33;8.85;;;;;;;11.27;72.13;98532.47;5094544;28;20059;-47
2022/11/28 09:35:20;;;;;;;30.15;8.80;;;;;;;11.10;75.03;98532.16;5076506;28;20031;-47
2022/11/28 09:37:46;;;;;;;35.45;10.80;;;;;;;11.18;77.49;98530.09;5093482;28;20101;-47
2022/11/28 09:40:25;;;;;;;33.42;10.07;;;;;;;11.46;79.16;98526.34;5093293;28;20020;-48
2022/11/28 09:42:51;;;;;;;16.58;8.85;;;;;;;11.48;78.98;98526.94;5094635;28;20115;-47
2022/11/28 09:45:21;;;;;;;19.65;10.23;;;;;;;11.27;78.60;98524.59;5094583;28;20154;-48
2022/11/28 09:48:13;;;;;;;18.42;8.35;;;;;;;11.31;80.16;98534.50;5093891;28;20031;-48
2022/11/28 09:50:40;;;;;;;15.38;8.73;;;;;;;11.36;80.60;98526.78;5094356;28;20032;-48
2022/11/28 09:53:23;;;;;;;21.70;9.55;;;;;;;11.34;81.76;98525.38;5094439;28;20154;-48
2022/11/28 09:55:52;;;;;;;23.00;9.60;;;;;;;11.55;82.24;98532.16;5094645;28;20035;-48
2022/11/28 09:58:38;;;;;;;37.45;11.02;;;;;;;11.54;82.08;98531.34;5094266;28;20024;-48
2022/11/28 10:01:16;;;;;;;92.03;15.88;;;;;;;11.56;82.65;98531.94;5092998;28;20024;-48
2022/11/28 10:04:06;;;;;;;35.88;10.35;;;;;;;11.63;82.93;98536.34;5094204;28;20410;-48
2022/11/28 10:06:38;;;;;;;57.13;11.90;;;;;;;11.57;83.46;98532.78;5094231;28;20020;-48
2022/11/28 10:09:26;;;;;;;38.40;10.98;;;;;;;11.50;83.39;98539.88;5092835;28;20058;-48
2022/11/28 10:12:18;;;;;;;34.13;10.07;;;;;;;11.36;84.36;98542.53;5092810;28;20061;-48
2022/11/28 10:15:33;;;;;;;26.88;10.25;;;;;;;11.37;84.44;98541.53;5094108;28;20032;-48
2022/11/28 10:18:18;;;;;;;23.63;10.20;;;;;;;11.32;83.78;98538.72;5080257;28;20165;-48
2022/11/28 10:20:47;;;;;;;68.20;11.30;;;;;;;11.28;85.07;98539.34;5093979;28;20077;-48
2022/11/28 10:23:25;;;;;;;71.55;12.57;;;;;;;11.53;84.90;98545.53;5093915;28;20016;-48
2022/11/28 10:26:05;;;;;;;35.65;9.30;;;;;;;11.74;83.77;98543.59;5092502;28;20028;-47
2022/11/28 10:28:37;;;;;;;26.25;8.10;;;;;;;11.86;83.18;98546.34;5076355;28;20036;-48
2022/11/28 10:31:09;;;;;;;38.20;9.63;;;;;;;11.84;83.10;98537.88;5093395;28;20028;-48
2022/11/28 10:33:49;;;;;;;15.90;8.15;;;;;;;11.94;83.51;98538.25;5093752;28;20028;-48
2022/11/28 10:36:54;;;;;;;28.67;8.95;;;;;;;11.93;84.55;98536.59;5092436;28;20043;-48
2022/11/28 10:39:20;;;;;;;17.05;10.18;;;;;;;11.90;85.51;98544.94;5093572;28;20024;-48
2022/11/28 10:42:11;;;;;;;19.67;10.15;;;;;;;11.83;86.02;98549.38;5093522;28;20486;-48
2022/11/28 10:44:51;;;;;;;15.18;8.13;;;;;;;11.54;85.75;98547.13;5093566;28;20032;-48
2022/11/28 10:47:39;;;;;;;20.20;10.02;;;;;;;11.32;87.15;98551.06;5093484;28;20462;-48
2022/11/28 10:50:37;;;;;;;22.23;10.75;;;;;;;11.21;88.11;98542.03;5093327;28;20114;-48
2022/11/28 10:53:21;;;;;;;18.67;9.93;;;;;;;11.10;88.26;98551.31;5059150;28;20043;-47
2022/11/28 10:56:04;;;;;;;17.75;10.23;;;;;;;11.02;88.95;98546.31;5091774;28;20032;-47
2022/11/28 10:58:54;;;;;;;20.30;9.13;;;;;;;10.95;88.74;98548.97;5092210;28;20063;-47
2022/11/28 11:01:20;;;;;;;15.52;11.57;;;;;;;10.82;89.66;98551.59;5091930;28;20486;-47
2022/11/28 11:03:47;;;;;;;16.67;9.57;;;;;;;10.83;90.49;98550.59;5091755;28;20413;-47
2022/11/28 11:06:13;;;;;;;24.08;10.82;;;;;;;10.71;90.65;98555.66;5093035;28;20024;-47
2022/11/28 11:08:40;;;;;;;18.63;10.50;;;;;;;10.85;92.10;98545.16;5091657;28;20055;-47
2022/11/28 11:11:16;;;;;;;18.73;10.25;;;;;;;10.91;92.07;98545.13;5091572;28;20020;-47
2022/11/28 11:14:12;;;;;;;17.27;9.88;;;;;;;10.91;92.41;98542.50;5092895;28;20035;-47
2022/11/28 11:16:58;;;;;;;78.05;12.63;;;;;;;10.89;92.24;98538.47;5057575;28;20041;-46
2022/11/28 11:19:34;;;;;;;;;;;;;;;10.87;92.08;98540.50;5110262;27;20380;-45
2022/11/28 11:22:13;;;;;;;36.28;10.95;;;;;;;10.77;91.89;98528.59;5109557;28;20003;-45
2022/11/28 11:24:38;;;;;;;20.48;9.93;;;;;;;10.71;92.31;98528.63;5109944;28;20489;-48
2022/11/28 11:27:17;;;;;;;24.05;11.25;;;;;;;10.66;92.27;98525.78;5109502;28;20020;-47
2022/11/28 11:29:42;;;;;;;17.88;10.80;;;;;;;10.69;92.99;98523.56;5109605;28;20040;-47
2022/11/28 11:32:20;;;;;;;17.40;10.20;;;;;;;10.72;93.17;98517.09;5109421;28;20440;-47
2022/11/28 11:34:46;;;;;;;14.82;11.45;;;;;;;10.70;93.98;98522.53;5109410;28;20038;-47
2022/11/28 11:37:27;;;;;;;30.23;12.88;;;;;;;10.60;93.52;98522.16;5108117;28;20028;-47
2022/11/28 11:39:53;;;;;;;22.88;15.23;;;;;;;10.52;94.05;98515.34;5108021;28;20032;-47
2022/11/28 11:42:25;;;;;;;76.47;52.78;;;;;;;10.51;94.38;98513.72;5107922;28;20077;-47
2022/11/28 11:44:51;;;;;;;72.60;49.05;;;;;;;10.49;94.70;98505.22;5107954;28;20036;-47
2022/11/28 11:47:17;;;;;;;23.20;15.25;;;;;;;10.29;93.07;98505.22;5107896;28;20026;-47
2022/11/28 11:49:46;;;;;;;21.75;14.40;;;;;;;10.06;91.81;98497.78;5109127;28;20023;-47